sensor_id;sensor_type;location;lat;lon;timestamp;temperature;humidity
16966;DHT22;8599;47.852;12.070;2022-09-09T00:00:19;17.00;99.90
16966;DHT22;8599;47.852;12.070;2022-09-09T00:02:52;17.10;99.90
16966;DHT22;8599;47.852;12.070;2022-09-09T00:05:26;17.10;99.90
16966;DHT22;8599;47.852;12.070;2022-09-09T00:07:58;17.00;99.90
16966;DHT22;8599;47.852;12.070;2022-09-09T00:10:29;17.00;99.90
16966;DHT22;8599;47.852;12.070;2022-09-09T00:13:01;17.00;99.90
16966;DHT22;8599;47.852;12.070;2022-09-09T00:15:32;17.00;99.90
16966;DHT22;8599;47.852;12.070;2022-09-09T00:18:07;17.00;99.90
16966;DHT22;8599;47.852;12.070;2022-09-09T00:20:41;17.10;99.90
16966;DHT22;8599;47.852;12.070;2022-09-09T00:23:12;17.10;99.90
16966;DHT22;8599;47.852;12.070;2022-09-09T00:25:48;17.10;99.90
16966;DHT22;8599;47.852;12.070;2022-09-09T00:28:19;17.10;99.90
16966;DHT22;8599;47.852;12.070;2022-09-09T00:30:46;17.10;99.90
16966;DHT22;8599;47.852;12.070;2022-09-09T00:33:17;17.10;99.90
16966;DHT22;8599;47.852;12.070;2022-09-09T00:35:48;17.20;99.90
16966;DHT22;8599;47.852;12.070;2022-09-09T00:38:20;17.20;99.90
16966;DHT22;8599;47.852;12.070;2022-09-09T00:40:52;17.20;99.90
16966;DHT22;8599;47.852;12.070;2022-09-09T00:43:27;17.20;99.90
16966;DHT22;8599;47.852;12.070;2022-09-09T00:48:57;17.20;99.90
16966;DHT22;8599;47.852;12.070;2022-09-09T00:51:34;17.20;99.90
16966;DHT22;8599;47.852;12.070;2022-09-09T00:57:06;17.10;99.90
16966;DHT22;8599;47.852;12.070;2022-09-09T00:59:45;17.10;99.90
16966;DHT22;8599;47.852;12.070;2022-09-09T01:02:19;17.10;99.90
16966;DHT22;8599;47.852;12.070;2022-09-09T01:04:48;17.10;99.90
16966;DHT22;8599;47.852;12.070;2022-09-09T01:07:16;17.10;99.90
16966;DHT22;8599;47.852;12.070;2022-09-09T01:09:57;17.10;99.90
16966;DHT22;8599;47.852;12.070;2022-09-09T01:12:29;17.10;99.90
16966;DHT22;8599;47.852;12.070;2022-09-09T01:15:07;17.20;99.90
16966;DHT22;8599;47.852;12.070;2022-09-09T01:17:38;17.20;99.90
16966;DHT22;8599;47.852;12.070;2022-09-09T01:20:12;17.20;99.90
16966;DHT22;8599;47.852;12.070;2022-09-09T01:22:48;17.20;99.90
16966;DHT22;8599;47.852;12.070;2022-09-09T01:25:28;17.20;99.90
16966;DHT22;8599;47.852;12.070;2022-09-09T01:27:58;17.20;99.90
16966;DHT22;8599;47.852;12.070;2022-09-09T01:30:26;17.10;99.90
16966;DHT22;8599;47.852;12.070;2022-09-09T01:32:56;17.00;99.90
16966;DHT22;8599;47.852;12.070;2022-09-09T01:35:35;17.00;99.90
16966;DHT22;8599;47.852;12.070;2022-09-09T01:38:03;16.90;99.90
16966;DHT22;8599;47.852;12.070;2022-09-09T01:40:31;16.90;99.90
16966;DHT22;8599;47.852;12.070;2022-09-09T01:42:59;16.90;99.90
16966;DHT22;8599;47.852;12.070;2022-09-09T01:45:26;16.80;99.90
16966;DHT22;8599;47.852;12.070;2022-09-09T01:47:53;16.80;99.90
16966;DHT22;8599;47.852;12.070;2022-09-09T01:50:21;16.90;99.90
16966;DHT22;8599;47.852;12.070;2022-09-09T01:52:54;16.80;99.90
16966;DHT22;8599;47.852;12.070;2022-09-09T01:55:29;16.70;99.90
16966;DHT22;8599;47.852;12.070;2022-09-09T01:58:05;16.70;99.90
16966;DHT22;8599;47.852;12.070;2022-09-09T02:00:41;16.60;99.90
16966;DHT22;8599;47.852;12.070;2022-09-09T02:03:17;16.60;99.90
16966;DHT22;8599;47.852;12.070;2022-09-09T02:05:52;16.60;99.90
16966;DHT22;8599;47.852;12.070;2022-09-09T02:08:26;16.60;99.90
16966;DHT22;8599;47.852;12.070;2022-09-09T02:10:58;16.70;99.90
16966;DHT22;8599;47.852;12.070;2022-09-09T02:13:29;16.60;99.90
16966;DHT22;8599;47.852;12.070;2022-09-09T02:16:01;16.40;99.90
16966;DHT22;8599;47.852;12.070;2022-09-09T02:18:34;16.40;99.90
16966;DHT22;8599;47.852;12.070;2022-09-09T02:21:02;16.40;99.90
16966;DHT22;8599;47.852;12.070;2022-09-09T02:23:30;16.40;99.90
16966;DHT22;8599;47.852;12.070;2022-09-09T02:25:58;16.50;99.90
16966;DHT22;8599;47.852;12.070;2022-09-09T02:28:29;16.50;99.90
16966;DHT22;8599;47.852;12.070;2022-09-09T02:30:58;16.40;99.90
16966;DHT22;8599;47.852;12.070;2022-09-09T02:33:28;16.50;99.90
16966;DHT22;8599;47.852;12.070;2022-09-09T02:36:15;16.40;99.90
16966;DHT22;8599;47.852;12.070;2022-09-09T02:38:46;16.40;99.90
16966;DHT22;8599;47.852;12.070;2022-09-09T02:41:19;16.50;99.90
16966;DHT22;8599;47.852;12.070;2022-09-09T02:43:49;16.50;99.90
16966;DHT22;8599;47.852;12.070;2022-09-09T02:46:28;16.40;99.90
16966;DHT22;8599;47.852;12.070;2022-09-09T02:49:00;16.40;99.90
16966;DHT22;8599;47.852;12.070;2022-09-09T02:51:32;16.50;99.90
16966;DHT22;8599;47.852;12.070;2022-09-09T02:54:10;16.50;99.90
16966;DHT22;8599;47.852;12.070;2022-09-09T02:56:42;16.40;99.90
16966;DHT22;8599;47.852;12.070;2022-09-09T02:59:11;16.40;99.90
16966;DHT22;8599;47.852;12.070;2022-09-09T03:01:38;16.40;99.90
16966;DHT22;8599;47.852;12.070;2022-09-09T03:04:05;16.40;99.90
16966;DHT22;8599;47.852;12.070;2022-09-09T03:06:32;16.20;99.90
16966;DHT22;8599;47.852;12.070;2022-09-09T03:08:59;16.20;99.90
16966;DHT22;8599;47.852;12.070;2022-09-09T03:11:27;16.10;99.90
16966;DHT22;8599;47.852;12.070;2022-09-09T03:13:54;16.10;99.90
16966;DHT22;8599;47.852;12.070;2022-09-09T03:16:22;16.20;99.90
16966;DHT22;8599;47.852;12.070;2022-09-09T03:18:49;16.20;99.90
16966;DHT22;8599;47.852;12.070;2022-09-09T03:21:16;16.00;99.90
16966;DHT22;8599;47.852;12.070;2022-09-09T03:23:43;16.10;99.90
16966;DHT22;8599;47.852;12.070;2022-09-09T03:26:11;16.10;99.90
16966;DHT22;8599;47.852;12.070;2022-09-09T03:28:40;16.00;99.90
16966;DHT22;8599;47.852;12.070;2022-09-09T03:31:07;16.00;99.90
16966;DHT22;8599;47.852;12.070;2022-09-09T03:33:37;16.10;99.90
16966;DHT22;8599;47.852;12.070;2022-09-09T03:36:04;16.20;99.90
16966;DHT22;8599;47.852;12.070;2022-09-09T03:38:32;16.10;99.90
16966;DHT22;8599;47.852;12.070;2022-09-09T03:41:00;16.10;99.90
16966;DHT22;8599;47.852;12.070;2022-09-09T03:43:28;16.10;99.90
16966;DHT22;8599;47.852;12.070;2022-09-09T03:45:55;16.10;99.90
16966;DHT22;8599;47.852;12.070;2022-09-09T03:48:24;16.10;99.90
16966;DHT22;8599;47.852;12.070;2022-09-09T03:50:53;16.00;99.90
16966;DHT22;8599;47.852;12.070;2022-09-09T03:53:22;16.00;99.90
16966;DHT22;8599;47.852;12.070;2022-09-09T03:55:51;16.00;99.90
16966;DHT22;8599;47.852;12.070;2022-09-09T03:58:21;16.10;99.90
16966;DHT22;8599;47.852;12.070;2022-09-09T04:01:00;16.00;99.90
16966;DHT22;8599;47.852;12.070;2022-09-09T04:03:27;16.00;99.90
16966;DHT22;8599;47.852;12.070;2022-09-09T04:05:57;16.00;99.90
16966;DHT22;8599;47.852;12.070;2022-09-09T04:08:25;16.00;99.90
16966;DHT22;8599;47.852;12.070;2022-09-09T04:10:52;16.00;99.90
16966;DHT22;8599;47.852;12.070;2022-09-09T04:13:22;16.10;99.90
16966;DHT22;8599;47.852;12.070;2022-09-09T04:15:51;16.10;99.90
16966;DHT22;8599;47.852;12.070;2022-09-09T04:18:19;16.20;99.90
16966;DHT22;8599;47.852;12.070;2022-09-09T04:20:46;16.20;99.90
16966;DHT22;8599;47.852;12.070;2022-09-09T04:23:15;16.20;99.90
16966;DHT22;8599;47.852;12.070;2022-09-09T04:25:44;16.40;99.90
16966;DHT22;8599;47.852;12.070;2022-09-09T04:28:12;16.40;99.90
16966;DHT22;8599;47.852;12.070;2022-09-09T04:30:39;16.40;99.90
16966;DHT22;8599;47.852;12.070;2022-09-09T04:33:06;16.40;99.90
16966;DHT22;8599;47.852;12.070;2022-09-09T04:35:34;16.40;99.90
16966;DHT22;8599;47.852;12.070;2022-09-09T04:38:01;16.40;99.90
16966;DHT22;8599;47.852;12.070;2022-09-09T04:40:30;16.40;99.90
16966;DHT22;8599;47.852;12.070;2022-09-09T04:42:58;16.40;99.90
16966;DHT22;8599;47.852;12.070;2022-09-09T04:45:25;16.30;99.90
16966;DHT22;8599;47.852;12.070;2022-09-09T04:47:52;16.30;99.90
16966;DHT22;8599;47.852;12.070;2022-09-09T04:50:19;16.30;99.90
16966;DHT22;8599;47.852;12.070;2022-09-09T04:52:46;16.40;99.90
16966;DHT22;8599;47.852;12.070;2022-09-09T04:55:14;16.40;99.90
16966;DHT22;8599;47.852;12.070;2022-09-09T04:57:42;16.50;99.90
16966;DHT22;8599;47.852;12.070;2022-09-09T05:00:10;16.60;99.90
16966;DHT22;8599;47.852;12.070;2022-09-09T05:02:38;16.60;99.90
16966;DHT22;8599;47.852;12.070;2022-09-09T05:05:06;16.60;99.90
16966;DHT22;8599;47.852;12.070;2022-09-09T05:07:33;16.50;99.90
16966;DHT22;8599;47.852;12.070;2022-09-09T05:10:00;16.40;99.90
16966;DHT22;8599;47.852;12.070;2022-09-09T05:12:26;16.40;99.90
16966;DHT22;8599;47.852;12.070;2022-09-09T05:14:55;16.40;99.90
16966;DHT22;8599;47.852;12.070;2022-09-09T05:17:22;16.40;99.90
16966;DHT22;8599;47.852;12.070;2022-09-09T05:19:49;16.40;99.90
16966;DHT22;8599;47.852;12.070;2022-09-09T05:22:19;16.50;99.90
16966;DHT22;8599;47.852;12.070;2022-09-09T05:24:46;16.40;99.90
16966;DHT22;8599;47.852;12.070;2022-09-09T05:27:16;16.40;99.90
16966;DHT22;8599;47.852;12.070;2022-09-09T05:29:43;16.50;99.90
16966;DHT22;8599;47.852;12.070;2022-09-09T05:32:12;16.50;99.90
16966;DHT22;8599;47.852;12.070;2022-09-09T05:34:40;16.50;99.90
16966;DHT22;8599;47.852;12.070;2022-09-09T05:37:07;16.50;99.90
16966;DHT22;8599;47.852;12.070;2022-09-09T05:39:34;16.60;99.90
16966;DHT22;8599;47.852;12.070;2022-09-09T05:42:02;16.60;99.90
16966;DHT22;8599;47.852;12.070;2022-09-09T05:44:30;16.60;99.90
16966;DHT22;8599;47.852;12.070;2022-09-09T05:46:56;16.60;99.90
16966;DHT22;8599;47.852;12.070;2022-09-09T05:49:25;16.50;99.90
16966;DHT22;8599;47.852;12.070;2022-09-09T05:51:52;16.60;99.90
16966;DHT22;8599;47.852;12.070;2022-09-09T05:54:19;16.60;99.90
16966;DHT22;8599;47.852;12.070;2022-09-09T05:56:46;16.60;99.90
16966;DHT22;8599;47.852;12.070;2022-09-09T05:59:16;16.60;99.90
16966;DHT22;8599;47.852;12.070;2022-09-09T06:01:44;16.60;99.90
16966;DHT22;8599;47.852;12.070;2022-09-09T06:04:10;16.60;99.90
16966;DHT22;8599;47.852;12.070;2022-09-09T06:06:39;16.60;99.90
16966;DHT22;8599;47.852;12.070;2022-09-09T06:09:08;16.60;99.90
16966;DHT22;8599;47.852;12.070;2022-09-09T06:11:37;16.60;99.90
16966;DHT22;8599;47.852;12.070;2022-09-09T06:14:05;16.60;99.90
16966;DHT22;8599;47.852;12.070;2022-09-09T06:16:32;16.60;99.90
16966;DHT22;8599;47.852;12.070;2022-09-09T06:18:59;16.60;99.90
16966;DHT22;8599;47.852;12.070;2022-09-09T06:21:29;16.60;99.90
16966;DHT22;8599;47.852;12.070;2022-09-09T06:23:59;16.50;99.90
16966;DHT22;8599;47.852;12.070;2022-09-09T06:26:28;16.50;99.90
16966;DHT22;8599;47.852;12.070;2022-09-09T06:28:56;16.60;99.90
16966;DHT22;8599;47.852;12.070;2022-09-09T06:31:25;16.70;99.90
16966;DHT22;8599;47.852;12.070;2022-09-09T06:33:53;16.70;99.90
16966;DHT22;8599;47.852;12.070;2022-09-09T06:36:22;16.60;99.90
16966;DHT22;8599;47.852;12.070;2022-09-09T06:38:49;16.60;99.90
16966;DHT22;8599;47.852;12.070;2022-09-09T06:41:18;16.70;99.90
16966;DHT22;8599;47.852;12.070;2022-09-09T06:43:45;16.70;99.90
16966;DHT22;8599;47.852;12.070;2022-09-09T06:46:14;16.60;99.90
16966;DHT22;8599;47.852;12.070;2022-09-09T06:48:42;16.60;99.90
16966;DHT22;8599;47.852;12.070;2022-09-09T06:51:12;16.50;99.90
16966;DHT22;8599;47.852;12.070;2022-09-09T06:53:39;16.50;99.90
16966;DHT22;8599;47.852;12.070;2022-09-09T06:56:19;16.60;99.90
16966;DHT22;8599;47.852;12.070;2022-09-09T06:58:47;16.60;99.90
16966;DHT22;8599;47.852;12.070;2022-09-09T07:01:16;16.50;99.90
16966;DHT22;8599;47.852;12.070;2022-09-09T07:03:46;16.50;99.90
16966;DHT22;8599;47.852;12.070;2022-09-09T07:06:15;16.50;99.90
16966;DHT22;8599;47.852;12.070;2022-09-09T07:08:43;16.40;99.90
16966;DHT22;8599;47.852;12.070;2022-09-09T07:11:10;16.40;99.90
16966;DHT22;8599;47.852;12.070;2022-09-09T07:13:39;16.50;99.90
16966;DHT22;8599;47.852;12.070;2022-09-09T07:16:06;16.40;99.90
16966;DHT22;8599;47.852;12.070;2022-09-09T07:18:34;16.50;99.90
16966;DHT22;8599;47.852;12.070;2022-09-09T07:21:02;16.60;99.90
16966;DHT22;8599;47.852;12.070;2022-09-09T07:23:30;16.70;99.90
16966;DHT22;8599;47.852;12.070;2022-09-09T07:25:57;16.70;99.90
16966;DHT22;8599;47.852;12.070;2022-09-09T07:28:24;16.90;99.90
16966;DHT22;8599;47.852;12.070;2022-09-09T07:30:56;16.90;99.90
16966;DHT22;8599;47.852;12.070;2022-09-09T07:33:23;16.90;99.90
16966;DHT22;8599;47.852;12.070;2022-09-09T07:35:51;16.90;99.90
16966;DHT22;8599;47.852;12.070;2022-09-09T07:38:18;16.80;99.90
16966;DHT22;8599;47.852;12.070;2022-09-09T07:40:45;16.90;99.90
16966;DHT22;8599;47.852;12.070;2022-09-09T07:43:12;16.90;99.90
16966;DHT22;8599;47.852;12.070;2022-09-09T07:45:39;16.90;99.90
16966;DHT22;8599;47.852;12.070;2022-09-09T07:48:09;16.90;99.90
16966;DHT22;8599;47.852;12.070;2022-09-09T07:50:36;16.90;99.90
16966;DHT22;8599;47.852;12.070;2022-09-09T07:53:05;16.80;99.90
16966;DHT22;8599;47.852;12.070;2022-09-09T07:55:32;16.80;99.90
16966;DHT22;8599;47.852;12.070;2022-09-09T07:57:58;16.70;99.90
16966;DHT22;8599;47.852;12.070;2022-09-09T08:00:25;16.70;99.90
16966;DHT22;8599;47.852;12.070;2022-09-09T08:02:54;16.70;99.90
16966;DHT22;8599;47.852;12.070;2022-09-09T08:05:22;16.60;99.90
16966;DHT22;8599;47.852;12.070;2022-09-09T08:07:49;16.60;99.90
16966;DHT22;8599;47.852;12.070;2022-09-09T08:10:16;16.60;99.90
16966;DHT22;8599;47.852;12.070;2022-09-09T08:12:43;16.50;99.90
16966;DHT22;8599;47.852;12.070;2022-09-09T08:15:11;16.50;99.90
16966;DHT22;8599;47.852;12.070;2022-09-09T08:17:38;16.50;99.90
16966;DHT22;8599;47.852;12.070;2022-09-09T08:20:06;16.50;99.90
16966;DHT22;8599;47.852;12.070;2022-09-09T08:22:34;16.60;99.90
16966;DHT22;8599;47.852;12.070;2022-09-09T08:25:03;16.70;99.90
16966;DHT22;8599;47.852;12.070;2022-09-09T08:27:32;16.70;99.90
16966;DHT22;8599;47.852;12.070;2022-09-09T08:29:58;16.70;99.90
16966;DHT22;8599;47.852;12.070;2022-09-09T08:32:25;16.80;99.90
16966;DHT22;8599;47.852;12.070;2022-09-09T08:34:53;16.90;99.90
16966;DHT22;8599;47.852;12.070;2022-09-09T08:37:19;17.00;99.90
16966;DHT22;8599;47.852;12.070;2022-09-09T08:39:48;16.90;99.90
16966;DHT22;8599;47.852;12.070;2022-09-09T08:42:34;16.80;99.90
16966;DHT22;8599;47.852;12.070;2022-09-09T08:45:12;16.70;99.90
16966;DHT22;8599;47.852;12.070;2022-09-09T08:47:49;16.80;99.90
16966;DHT22;8599;47.852;12.070;2022-09-09T08:50:22;16.80;99.90
16966;DHT22;8599;47.852;12.070;2022-09-09T08:52:54;16.90;99.90
16966;DHT22;8599;47.852;12.070;2022-09-09T08:55:29;16.80;99.90
16966;DHT22;8599;47.852;12.070;2022-09-09T08:58:08;16.90;99.90
16966;DHT22;8599;47.852;12.070;2022-09-09T09:00:43;16.90;99.90
16966;DHT22;8599;47.852;12.070;2022-09-09T09:03:18;16.90;99.90
16966;DHT22;8599;47.852;12.070;2022-09-09T09:05:57;17.00;99.90
16966;DHT22;8599;47.852;12.070;2022-09-09T09:08:30;17.00;99.90
16966;DHT22;8599;47.852;12.070;2022-09-09T09:11:02;17.00;99.90
16966;DHT22;8599;47.852;12.070;2022-09-09T09:13:37;17.00;99.90
16966;DHT22;8599;47.852;12.070;2022-09-09T09:16:16;17.00;99.90
16966;DHT22;8599;47.852;12.070;2022-09-09T09:18:44;16.90;99.90
16966;DHT22;8599;47.852;12.070;2022-09-09T09:21:13;16.90;99.90
16966;DHT22;8599;47.852;12.070;2022-09-09T09:23:48;16.90;99.90
16966;DHT22;8599;47.852;12.070;2022-09-09T09:26:18;16.90;99.90
16966;DHT22;8599;47.852;12.070;2022-09-09T09:28:45;16.90;99.90
16966;DHT22;8599;47.852;12.070;2022-09-09T09:31:13;16.90;99.90
16966;DHT22;8599;47.852;12.070;2022-09-09T09:33:47;16.90;99.90
16966;DHT22;8599;47.852;12.070;2022-09-09T09:36:15;16.90;99.90
16966;DHT22;8599;47.852;12.070;2022-09-09T09:38:53;17.00;99.90
16966;DHT22;8599;47.852;12.070;2022-09-09T09:41:33;17.10;99.90
16966;DHT22;8599;47.852;12.070;2022-09-09T09:44:01;17.10;99.90
16966;DHT22;8599;47.852;12.070;2022-09-09T09:46:30;17.10;99.90
16966;DHT22;8599;47.852;12.070;2022-09-09T09:48:58;17.20;99.90
16966;DHT22;8599;47.852;12.070;2022-09-09T09:51:25;17.20;99.90
16966;DHT22;8599;47.852;12.070;2022-09-09T09:54:01;17.20;99.90
16966;DHT22;8599;47.852;12.070;2022-09-09T09:56:32;17.10;99.90
16966;DHT22;8599;47.852;12.070;2022-09-09T09:58:59;17.10;99.90
16966;DHT22;8599;47.852;12.070;2022-09-09T10:01:28;17.20;99.90
16966;DHT22;8599;47.852;12.070;2022-09-09T10:03:58;17.20;99.90
16966;DHT22;8599;47.852;12.070;2022-09-09T10:06:33;17.20;99.90
16966;DHT22;8599;47.852;12.070;2022-09-09T10:09:02;17.30;99.90
16966;DHT22;8599;47.852;12.070;2022-09-09T10:11:44;17.20;99.90
16966;DHT22;8599;47.852;12.070;2022-09-09T10:14:20;17.10;99.90
16966;DHT22;8599;47.852;12.070;2022-09-09T10:17:01;17.00;99.90
16966;DHT22;8599;47.852;12.070;2022-09-09T10:19:33;17.00;99.90
16966;DHT22;8599;47.852;12.070;2022-09-09T10:22:11;17.10;99.90
16966;DHT22;8599;47.852;12.070;2022-09-09T10:24:54;17.10;99.90
16966;DHT22;8599;47.852;12.070;2022-09-09T10:27:33;17.20;99.90
16966;DHT22;8599;47.852;12.070;2022-09-09T10:30:12;17.30;99.90
16966;DHT22;8599;47.852;12.070;2022-09-09T10:32:46;17.40;99.90
16966;DHT22;8599;47.852;12.070;2022-09-09T10:35:27;17.40;99.90
16966;DHT22;8599;47.852;12.070;2022-09-09T10:38:12;17.40;99.90
16966;DHT22;8599;47.852;12.070;2022-09-09T10:40:46;17.50;99.90
16966;DHT22;8599;47.852;12.070;2022-09-09T10:43:30;17.30;99.90
16966;DHT22;8599;47.852;12.070;2022-09-09T10:46:07;17.10;99.90
16966;DHT22;8599;47.852;12.070;2022-09-09T10:48:50;17.00;99.90
16966;DHT22;8599;47.852;12.070;2022-09-09T10:51:28;17.00;99.90
16966;DHT22;8599;47.852;12.070;2022-09-09T10:54:19;17.10;99.90
16966;DHT22;8599;47.852;12.070;2022-09-09T10:57:02;17.00;99.90
16966;DHT22;8599;47.852;12.070;2022-09-09T10:59:35;16.90;99.90
16966;DHT22;8599;47.852;12.070;2022-09-09T11:02:12;16.90;99.90
16966;DHT22;8599;47.852;12.070;2022-09-09T11:04:45;17.00;99.90
16966;DHT22;8599;47.852;12.070;2022-09-09T11:07:24;17.00;99.90
16966;DHT22;8599;47.852;12.070;2022-09-09T11:10:04;17.10;99.90
16966;DHT22;8599;47.852;12.070;2022-09-09T11:12:34;17.00;99.90
16966;DHT22;8599;47.852;12.070;2022-09-09T11:15:12;16.90;99.90
16966;DHT22;8599;47.852;12.070;2022-09-09T11:17:45;17.00;99.90
16966;DHT22;8599;47.852;12.070;2022-09-09T11:20:15;17.10;99.90
16966;DHT22;8599;47.852;12.070;2022-09-09T11:22:46;17.10;99.90
16966;DHT22;8599;47.852;12.070;2022-09-09T11:25:17;17.20;99.90
16966;DHT22;8599;47.852;12.070;2022-09-09T11:27:57;17.10;99.90
16966;DHT22;8599;47.852;12.070;2022-09-09T11:30:34;17.10;99.90
16966;DHT22;8599;47.852;12.070;2022-09-09T11:33:41;17.10;99.90
16966;DHT22;8599;47.852;12.070;2022-09-09T11:36:25;17.20;99.90
16966;DHT22;8599;47.852;12.070;2022-09-09T11:38:55;17.20;99.90
16966;DHT22;8599;47.852;12.070;2022-09-09T11:41:33;17.20;99.90
16966;DHT22;8599;47.852;12.070;2022-09-09T11:44:10;17.30;99.90
16966;DHT22;8599;47.852;12.070;2022-09-09T11:46:39;17.40;99.90
16966;DHT22;8599;47.852;12.070;2022-09-09T11:49:26;17.30;99.90
16966;DHT22;8599;47.852;12.070;2022-09-09T11:51:53;17.40;99.90
16966;DHT22;8599;47.852;12.070;2022-09-09T11:54:28;17.40;99.90
16966;DHT22;8599;47.852;12.070;2022-09-09T11:56:56;17.40;99.90
16966;DHT22;8599;47.852;12.070;2022-09-09T11:59:26;17.40;99.90
16966;DHT22;8599;47.852;12.070;2022-09-09T12:01:57;17.40;99.90
16966;DHT22;8599;47.852;12.070;2022-09-09T12:04:32;17.50;99.90
16966;DHT22;8599;47.852;12.070;2022-09-09T12:07:01;17.50;99.90
16966;DHT22;8599;47.852;12.070;2022-09-09T12:09:33;17.40;99.90
16966;DHT22;8599;47.852;12.070;2022-09-09T12:12:16;17.40;99.90
16966;DHT22;8599;47.852;12.070;2022-09-09T12:14:59;17.50;99.90
16966;DHT22;8599;47.852;12.070;2022-09-09T12:17:29;17.50;99.90
16966;DHT22;8599;47.852;12.070;2022-09-09T12:20:13;17.50;99.90
16966;DHT22;8599;47.852;12.070;2022-09-09T12:22:57;17.50;99.90
16966;DHT22;8599;47.852;12.070;2022-09-09T12:25:46;17.40;99.90
16966;DHT22;8599;47.852;12.070;2022-09-09T12:28:17;17.50;99.90
16966;DHT22;8599;47.852;12.070;2022-09-09T12:30:52;17.50;99.90
16966;DHT22;8599;47.852;12.070;2022-09-09T12:33:23;17.50;99.90
16966;DHT22;8599;47.852;12.070;2022-09-09T12:35:54;17.50;99.90
16966;DHT22;8599;47.852;12.070;2022-09-09T12:38:27;17.50;99.90
16966;DHT22;8599;47.852;12.070;2022-09-09T12:40:56;17.60;99.90
16966;DHT22;8599;47.852;12.070;2022-09-09T12:43:25;17.70;99.90
16966;DHT22;8599;47.852;12.070;2022-09-09T12:45:55;17.80;99.90
16966;DHT22;8599;47.852;12.070;2022-09-09T12:48:30;17.80;99.90
16966;DHT22;8599;47.852;12.070;2022-09-09T12:50:58;17.80;99.90
16966;DHT22;8599;47.852;12.070;2022-09-09T12:53:28;17.80;99.90
16966;DHT22;8599;47.852;12.070;2022-09-09T12:55:58;17.80;99.90
16966;DHT22;8599;47.852;12.070;2022-09-09T12:58:26;17.80;99.90
16966;DHT22;8599;47.852;12.070;2022-09-09T13:00:58;17.80;99.90
16966;DHT22;8599;47.852;12.070;2022-09-09T13:03:27;17.80;99.90
16966;DHT22;8599;47.852;12.070;2022-09-09T13:05:58;17.80;99.90
16966;DHT22;8599;47.852;12.070;2022-09-09T13:08:25;17.70;99.90
16966;DHT22;8599;47.852;12.070;2022-09-09T13:10:57;17.70;99.90
16966;DHT22;8599;47.852;12.070;2022-09-09T13:13:27;17.60;99.90
16966;DHT22;8599;47.852;12.070;2022-09-09T13:15:57;17.50;99.90
16966;DHT22;8599;47.852;12.070;2022-09-09T13:18:28;17.50;99.90
16966;DHT22;8599;47.852;12.070;2022-09-09T13:20:56;17.50;99.90
16966;DHT22;8599;47.852;12.070;2022-09-09T13:23:27;17.40;99.90
16966;DHT22;8599;47.852;12.070;2022-09-09T13:25:56;17.40;99.90
16966;DHT22;8599;47.852;12.070;2022-09-09T13:28:26;17.40;99.90
16966;DHT22;8599;47.852;12.070;2022-09-09T13:30:57;17.50;99.90
16966;DHT22;8599;47.852;12.070;2022-09-09T13:33:34;17.40;99.90
16966;DHT22;8599;47.852;12.070;2022-09-09T13:36:04;17.40;99.90
16966;DHT22;8599;47.852;12.070;2022-09-09T13:38:33;17.40;99.90
16966;DHT22;8599;47.852;12.070;2022-09-09T13:41:04;17.40;99.90
16966;DHT22;8599;47.852;12.070;2022-09-09T13:43:36;17.20;99.90
16966;DHT22;8599;47.852;12.070;2022-09-09T13:46:05;17.20;99.90
16966;DHT22;8599;47.852;12.070;2022-09-09T13:48:34;17.10;99.90
16966;DHT22;8599;47.852;12.070;2022-09-09T13:51:03;17.10;99.90
16966;DHT22;8599;47.852;12.070;2022-09-09T13:53:33;17.20;99.90
16966;DHT22;8599;47.852;12.070;2022-09-09T13:56:01;17.30;99.90
16966;DHT22;8599;47.852;12.070;2022-09-09T13:58:28;17.30;99.90
16966;DHT22;8599;47.852;12.070;2022-09-09T14:00:55;17.30;99.90
16966;DHT22;8599;47.852;12.070;2022-09-09T14:03:22;17.30;99.90
16966;DHT22;8599;47.852;12.070;2022-09-09T14:05:51;17.40;99.90
16966;DHT22;8599;47.852;12.070;2022-09-09T14:08:24;17.40;99.90
16966;DHT22;8599;47.852;12.070;2022-09-09T14:10:52;17.40;99.90
16966;DHT22;8599;47.852;12.070;2022-09-09T14:13:22;17.40;99.90
16966;DHT22;8599;47.852;12.070;2022-09-09T14:15:50;17.40;99.90
16966;DHT22;8599;47.852;12.070;2022-09-09T14:18:16;17.40;99.90
16966;DHT22;8599;47.852;12.070;2022-09-09T14:20:44;17.40;99.90
16966;DHT22;8599;47.852;12.070;2022-09-09T14:23:12;17.50;99.90
16966;DHT22;8599;47.852;12.070;2022-09-09T14:25:41;17.40;99.90
16966;DHT22;8599;47.852;12.070;2022-09-09T14:28:10;17.40;99.90
16966;DHT22;8599;47.852;12.070;2022-09-09T14:30:39;17.40;99.90
16966;DHT22;8599;47.852;12.070;2022-09-09T14:33:06;17.50;99.90
16966;DHT22;8599;47.852;12.070;2022-09-09T14:35:34;17.40;99.90
16966;DHT22;8599;47.852;12.070;2022-09-09T14:38:02;17.40;99.90
16966;DHT22;8599;47.852;12.070;2022-09-09T14:40:30;17.40;99.90
16966;DHT22;8599;47.852;12.070;2022-09-09T14:42:57;17.40;99.90
16966;DHT22;8599;47.852;12.070;2022-09-09T14:45:25;17.40;99.90
16966;DHT22;8599;47.852;12.070;2022-09-09T14:47:52;17.40;99.90
16966;DHT22;8599;47.852;12.070;2022-09-09T14:50:19;17.40;99.90
16966;DHT22;8599;47.852;12.070;2022-09-09T14:52:46;17.50;99.90
16966;DHT22;8599;47.852;12.070;2022-09-09T14:55:15;17.50;99.90
16966;DHT22;8599;47.852;12.070;2022-09-09T14:57:43;17.60;99.90
16966;DHT22;8599;47.852;12.070;2022-09-09T15:00:11;17.60;99.90
16966;DHT22;8599;47.852;12.070;2022-09-09T15:02:38;17.70;99.90
16966;DHT22;8599;47.852;12.070;2022-09-09T15:05:06;17.70;99.90
16966;DHT22;8599;47.852;12.070;2022-09-09T15:07:33;17.70;99.90
16966;DHT22;8599;47.852;12.070;2022-09-09T15:10:02;17.70;99.90
16966;DHT22;8599;47.852;12.070;2022-09-09T15:12:29;17.70;99.90
16966;DHT22;8599;47.852;12.070;2022-09-09T15:14:58;17.70;99.90
16966;DHT22;8599;47.852;12.070;2022-09-09T15:17:25;17.80;99.90
16966;DHT22;8599;47.852;12.070;2022-09-09T15:19:53;17.80;99.90
16966;DHT22;8599;47.852;12.070;2022-09-09T15:22:20;17.70;99.90
16966;DHT22;8599;47.852;12.070;2022-09-09T15:24:47;17.70;99.90
16966;DHT22;8599;47.852;12.070;2022-09-09T15:27:14;17.80;99.90
16966;DHT22;8599;47.852;12.070;2022-09-09T15:29:41;17.80;99.90
16966;DHT22;8599;47.852;12.070;2022-09-09T15:32:10;17.80;99.90
16966;DHT22;8599;47.852;12.070;2022-09-09T15:34:37;17.70;99.90
16966;DHT22;8599;47.852;12.070;2022-09-09T15:37:05;17.70;99.90
16966;DHT22;8599;47.852;12.070;2022-09-09T15:39:32;17.80;99.90
16966;DHT22;8599;47.852;12.070;2022-09-09T15:41:59;17.80;99.90
16966;DHT22;8599;47.852;12.070;2022-09-09T15:44:27;17.80;99.90
16966;DHT22;8599;47.852;12.070;2022-09-09T15:46:54;17.90;99.90
16966;DHT22;8599;47.852;12.070;2022-09-09T15:49:23;17.90;99.90
16966;DHT22;8599;47.852;12.070;2022-09-09T15:51:53;17.90;99.90
16966;DHT22;8599;47.852;12.070;2022-09-09T15:54:22;17.90;99.90
16966;DHT22;8599;47.852;12.070;2022-09-09T15:56:51;17.80;99.90